sensor_id;sensor_type;location;lat;lon;timestamp;P1;durP1;ratioP1;P2;durP2;ratioP2
21101;SDS011;10709;49.006;12.100;2023-12-22T00:02:17;2.33;;;0.57;;
21101;SDS011;10709;49.006;12.100;2023-12-22T00:04:44;2.97;;;0.93;;
21101;SDS011;10709;49.006;12.100;2023-12-22T00:07:11;2.50;;;0.60;;
21101;SDS011;10709;49.006;12.100;2023-12-22T00:09:37;3.47;;;0.80;;
21101;SDS011;10709;49.006;12.100;2023-12-22T00:12:04;5.33;;;1.03;;
21101;SDS011;10709;49.006;12.100;2023-12-22T00:14:31;2.43;;;0.80;;
21101;SDS011;10709;49.006;12.100;2023-12-22T00:16:57;2.60;;;1.03;;
21101;SDS011;10709;49.006;12.100;2023-12-22T00:19:24;2.03;;;0.80;;
21101;SDS011;10709;49.006;12.100;2023-12-22T00:21:51;3.80;;;0.80;;
21101;SDS011;10709;49.006;12.100;2023-12-22T00:24:18;2.53;;;0.70;;
21101;SDS011;10709;49.006;12.100;2023-12-22T00:26:46;2.37;;;0.73;;
21101;SDS011;10709;49.006;12.100;2023-12-22T00:29:14;4.27;;;0.70;;
21101;SDS011;10709;49.006;12.100;2023-12-22T00:31:44;6.30;;;0.90;;
21101;SDS011;10709;49.006;12.100;2023-12-22T00:34:10;3.43;;;0.80;;
21101;SDS011;10709;49.006;12.100;2023-12-22T00:36:40;4.97;;;1.00;;
21101;SDS011;10709;49.006;12.100;2023-12-22T00:39:07;2.57;;;0.70;;
21101;SDS011;10709;49.006;12.100;2023-12-22T00:41:34;5.87;;;0.97;;
21101;SDS011;10709;49.006;12.100;2023-12-22T00:44:00;2.57;;;0.60;;
21101;SDS011;10709;49.006;12.100;2023-12-22T00:46:27;4.63;;;1.00;;
21101;SDS011;10709;49.006;12.100;2023-12-22T00:48:54;2.87;;;0.70;;
21101;SDS011;10709;49.006;12.100;2023-12-22T00:51:20;2.90;;;0.80;;
21101;SDS011;10709;49.006;12.100;2023-12-22T00:53:47;3.13;;;0.77;;
21101;SDS011;10709;49.006;12.100;2023-12-22T00:56:13;4.77;;;0.97;;
21101;SDS011;10709;49.006;12.100;2023-12-22T00:58:40;5.40;;;1.10;;
21101;SDS011;10709;49.006;12.100;2023-12-22T01:01:07;2.57;;;0.80;;
21101;SDS011;10709;49.006;12.100;2023-12-22T01:03:34;5.37;;;1.00;;
21101;SDS011;10709;49.006;12.100;2023-12-22T01:06:05;3.87;;;0.80;;
21101;SDS011;10709;49.006;12.100;2023-12-22T01:08:32;5.27;;;1.00;;
21101;SDS011;10709;49.006;12.100;2023-12-22T01:10:58;4.80;;;0.90;;
21101;SDS011;10709;49.006;12.100;2023-12-22T01:13:25;5.60;;;1.10;;
21101;SDS011;10709;49.006;12.100;2023-12-22T01:15:52;4.33;;;0.80;;
21101;SDS011;10709;49.006;12.100;2023-12-22T01:18:18;5.30;;;1.00;;
21101;SDS011;10709;49.006;12.100;2023-12-22T01:20:45;6.97;;;1.00;;
21101;SDS011;10709;49.006;12.100;2023-12-22T01:23:13;3.50;;;0.70;;
21101;SDS011;10709;49.006;12.100;2023-12-22T01:25:40;5.43;;;1.10;;
21101;SDS011;10709;49.006;12.100;2023-12-22T01:28:06;3.67;;;1.00;;
21101;SDS011;10709;49.006;12.100;2023-12-22T01:30:33;5.27;;;1.20;;
21101;SDS011;10709;49.006;12.100;2023-12-22T01:32:59;6.80;;;1.20;;
21101;SDS011;10709;49.006;12.100;2023-12-22T01:35:26;5.10;;;1.20;;
21101;SDS011;10709;49.006;12.100;2023-12-22T01:37:53;5.87;;;1.27;;
21101;SDS011;10709;49.006;12.100;2023-12-22T01:40:20;6.40;;;1.30;;
21101;SDS011;10709;49.006;12.100;2023-12-22T01:42:47;6.57;;;1.40;;
21101;SDS011;10709;49.006;12.100;2023-12-22T01:45:16;3.53;;;1.20;;
21101;SDS011;10709;49.006;12.100;2023-12-22T01:47:42;5.77;;;1.20;;
21101;SDS011;10709;49.006;12.100;2023-12-22T01:50:11;8.27;;;1.40;;
21101;SDS011;10709;49.006;12.100;2023-12-22T01:52:39;6.17;;;1.17;;
21101;SDS011;10709;49.006;12.100;2023-12-22T01:55:09;3.00;;;0.97;;
21101;SDS011;10709;49.006;12.100;2023-12-22T01:57:38;3.93;;;1.40;;
21101;SDS011;10709;49.006;12.100;2023-12-22T02:00:07;6.87;;;1.20;;
21101;SDS011;10709;49.006;12.100;2023-12-22T02:02:34;7.13;;;1.60;;
21101;SDS011;10709;49.006;12.100;2023-12-22T02:05:02;7.87;;;1.20;;
21101;SDS011;10709;49.006;12.100;2023-12-22T02:07:29;3.73;;;1.30;;
21101;SDS011;10709;49.006;12.100;2023-12-22T02:09:56;6.10;;;1.30;;
21101;SDS011;10709;49.006;12.100;2023-12-22T02:12:23;8.17;;;1.70;;
21101;SDS011;10709;49.006;12.100;2023-12-22T02:14:50;7.40;;;1.60;;
21101;SDS011;10709;49.006;12.100;2023-12-22T02:17:20;6.57;;;1.00;;
21101;SDS011;10709;49.006;12.100;2023-12-22T02:19:52;5.60;;;1.33;;
21101;SDS011;10709;49.006;12.100;2023-12-22T02:22:19;9.00;;;1.50;;
21101;SDS011;10709;49.006;12.100;2023-12-22T02:24:47;5.53;;;1.37;;
21101;SDS011;10709;49.006;12.100;2023-12-22T02:29:49;6.07;;;1.20;;
21101;SDS011;10709;49.006;12.100;2023-12-22T02:32:39;9.67;;;1.63;;
21101;SDS011;10709;49.006;12.100;2023-12-22T02:35:19;6.20;;;1.43;;
21101;SDS011;10709;49.006;12.100;2023-12-22T02:37:49;4.70;;;1.10;;
21101;SDS011;10709;49.006;12.100;2023-12-22T02:40:18;8.03;;;1.60;;
21101;SDS011;10709;49.006;12.100;2023-12-22T02:42:46;5.37;;;1.17;;
21101;SDS011;10709;49.006;12.100;2023-12-22T02:45:14;6.27;;;1.53;;
21101;SDS011;10709;49.006;12.100;2023-12-22T02:47:42;4.80;;;1.30;;
21101;SDS011;10709;49.006;12.100;2023-12-22T02:50:09;7.20;;;1.30;;
21101;SDS011;10709;49.006;12.100;2023-12-22T02:52:38;5.63;;;1.20;;
21101;SDS011;10709;49.006;12.100;2023-12-22T02:55:05;5.53;;;1.50;;
21101;SDS011;10709;49.006;12.100;2023-12-22T02:57:32;4.10;;;1.10;;
21101;SDS011;10709;49.006;12.100;2023-12-22T02:59:59;6.40;;;1.03;;
21101;SDS011;10709;49.006;12.100;2023-12-22T03:02:26;5.00;;;1.00;;
21101;SDS011;10709;49.006;12.100;2023-12-22T03:04:52;4.20;;;1.20;;
21101;SDS011;10709;49.006;12.100;2023-12-22T03:07:19;3.87;;;0.83;;
21101;SDS011;10709;49.006;12.100;2023-12-22T03:09:46;4.33;;;1.07;;
21101;SDS011;10709;49.006;12.100;2023-12-22T03:12:12;4.33;;;0.90;;
21101;SDS011;10709;49.006;12.100;2023-12-22T03:14:39;5.80;;;1.10;;
21101;SDS011;10709;49.006;12.100;2023-12-22T03:17:06;3.37;;;1.43;;
21101;SDS011;10709;49.006;12.100;2023-12-22T03:19:35;4.03;;;0.90;;
21101;SDS011;10709;49.006;12.100;2023-12-22T03:22:02;5.43;;;1.30;;
21101;SDS011;10709;49.006;12.100;2023-12-22T03:24:30;2.70;;;0.80;;
21101;SDS011;10709;49.006;12.100;2023-12-22T03:26:56;4.37;;;0.90;;
21101;SDS011;10709;49.006;12.100;2023-12-22T03:29:23;4.63;;;1.10;;
21101;SDS011;10709;49.006;12.100;2023-12-22T03:31:49;3.90;;;0.77;;
21101;SDS011;10709;49.006;12.100;2023-12-22T03:34:16;3.97;;;1.10;;
21101;SDS011;10709;49.006;12.100;2023-12-22T03:36:42;2.43;;;0.93;;
21101;SDS011;10709;49.006;12.100;2023-12-22T03:39:09;4.40;;;1.03;;
21101;SDS011;10709;49.006;12.100;2023-12-22T03:41:35;4.50;;;0.70;;
21101;SDS011;10709;49.006;12.100;2023-12-22T03:44:02;3.50;;;0.77;;
21101;SDS011;10709;49.006;12.100;2023-12-22T03:46:29;5.17;;;0.80;;
21101;SDS011;10709;49.006;12.100;2023-12-22T03:48:56;2.90;;;0.73;;
21101;SDS011;10709;49.006;12.100;2023-12-22T03:51:22;3.13;;;0.60;;
21101;SDS011;10709;49.006;12.100;2023-12-22T03:53:49;3.83;;;1.07;;
21101;SDS011;10709;49.006;12.100;2023-12-22T03:56:16;5.30;;;1.00;;
21101;SDS011;10709;49.006;12.100;2023-12-22T03:58:43;3.67;;;0.83;;
21101;SDS011;10709;49.006;12.100;2023-12-22T04:01:13;6.23;;;0.90;;
21101;SDS011;10709;49.006;12.100;2023-12-22T04:03:41;2.63;;;0.83;;
21101;SDS011;10709;49.006;12.100;2023-12-22T04:06:07;3.57;;;0.50;;
21101;SDS011;10709;49.006;12.100;2023-12-22T04:08:35;4.17;;;0.70;;
21101;SDS011;10709;49.006;12.100;2023-12-22T04:11:06;1.33;;;0.53;;
21101;SDS011;10709;49.006;12.100;2023-12-22T04:13:32;2.00;;;0.63;;
21101;SDS011;10709;49.006;12.100;2023-12-22T04:15:59;1.03;;;0.40;;
21101;SDS011;10709;49.006;12.100;2023-12-22T04:18:28;3.50;;;0.77;;
21101;SDS011;10709;49.006;12.100;2023-12-22T04:20:55;4.43;;;0.73;;
21101;SDS011;10709;49.006;12.100;2023-12-22T04:23:21;1.57;;;0.60;;
21101;SDS011;10709;49.006;12.100;2023-12-22T04:25:48;1.57;;;0.50;;
21101;SDS011;10709;49.006;12.100;2023-12-22T04:28:15;3.00;;;0.60;;
21101;SDS011;10709;49.006;12.100;2023-12-22T04:30:41;1.53;;;0.40;;
21101;SDS011;10709;49.006;12.100;2023-12-22T04:33:08;1.50;;;0.47;;
21101;SDS011;10709;49.006;12.100;2023-12-22T04:35:36;2.17;;;0.40;;
21101;SDS011;10709;49.006;12.100;2023-12-22T04:38:07;1.53;;;0.40;;
21101;SDS011;10709;49.006;12.100;2023-12-22T04:40:34;1.53;;;0.40;;
21101;SDS011;10709;49.006;12.100;2023-12-22T04:43:01;1.27;;;0.50;;
21101;SDS011;10709;49.006;12.100;2023-12-22T04:45:30;1.77;;;0.50;;
21101;SDS011;10709;49.006;12.100;2023-12-22T04:47:56;0.77;;;0.40;;
21101;SDS011;10709;49.006;12.100;2023-12-22T04:50:23;2.30;;;0.40;;
21101;SDS011;10709;49.006;12.100;2023-12-22T04:52:52;0.80;;;0.40;;
21101;SDS011;10709;49.006;12.100;2023-12-22T04:55:18;0.83;;;0.40;;
21101;SDS011;10709;49.006;12.100;2023-12-22T04:57:47;0.37;;;0.23;;
21101;SDS011;10709;49.006;12.100;2023-12-22T05:00:14;1.60;;;0.40;;
21101;SDS011;10709;49.006;12.100;2023-12-22T05:02:41;1.47;;;0.40;;
21101;SDS011;10709;49.006;12.100;2023-12-22T05:05:08;1.33;;;0.40;;
21101;SDS011;10709;49.006;12.100;2023-12-22T05:07:34;2.13;;;0.50;;
21101;SDS011;10709;49.006;12.100;2023-12-22T05:10:02;1.67;;;0.40;;
21101;SDS011;10709;49.006;12.100;2023-12-22T05:12:29;2.50;;;0.53;;
21101;SDS011;10709;49.006;12.100;2023-12-22T05:14:56;2.00;;;0.60;;
21101;SDS011;10709;49.006;12.100;2023-12-22T05:17:25;0.70;;;0.50;;
21101;SDS011;10709;49.006;12.100;2023-12-22T05:19:52;3.20;;;0.57;;
21101;SDS011;10709;49.006;12.100;2023-12-22T05:22:19;1.37;;;0.50;;
21101;SDS011;10709;49.006;12.100;2023-12-22T05:24:45;1.30;;;0.40;;
21101;SDS011;10709;49.006;12.100;2023-12-22T05:27:12;1.20;;;0.53;;
21101;SDS011;10709;49.006;12.100;2023-12-22T05:29:39;1.93;;;0.40;;
21101;SDS011;10709;49.006;12.100;2023-12-22T05:32:06;2.20;;;0.43;;
21101;SDS011;10709;49.006;12.100;2023-12-22T05:34:35;2.37;;;0.60;;
21101;SDS011;10709;49.006;12.100;2023-12-22T05:37:02;2.03;;;0.50;;
21101;SDS011;10709;49.006;12.100;2023-12-22T05:39:29;1.83;;;0.57;;
21101;SDS011;10709;49.006;12.100;2023-12-22T05:41:56;2.07;;;0.80;;
21101;SDS011;10709;49.006;12.100;2023-12-22T05:44:25;1.80;;;0.50;;
21101;SDS011;10709;49.006;12.100;2023-12-22T05:46:56;2.40;;;0.50;;
21101;SDS011;10709;49.006;12.100;2023-12-22T05:49:23;0.67;;;0.40;;
21101;SDS011;10709;49.006;12.100;2023-12-22T05:51:52;3.27;;;0.60;;
21101;SDS011;10709;49.006;12.100;2023-12-22T05:54:19;1.00;;;0.40;;
21101;SDS011;10709;49.006;12.100;2023-12-22T05:56:46;1.13;;;0.50;;
21101;SDS011;10709;49.006;12.100;2023-12-22T05:59:14;2.37;;;0.53;;
21101;SDS011;10709;49.006;12.100;2023-12-22T06:01:40;1.80;;;0.50;;
21101;SDS011;10709;49.006;12.100;2023-12-22T06:04:08;2.23;;;0.70;;
21101;SDS011;10709;49.006;12.100;2023-12-22T06:06:36;2.67;;;0.77;;
21101;SDS011;10709;49.006;12.100;2023-12-22T06:09:03;1.93;;;0.40;;
21101;SDS011;10709;49.006;12.100;2023-12-22T06:11:29;2.07;;;0.50;;
21101;SDS011;10709;49.006;12.100;2023-12-22T06:13:56;2.77;;;0.60;;
21101;SDS011;10709;49.006;12.100;2023-12-22T06:16:23;2.57;;;0.70;;
21101;SDS011;10709;49.006;12.100;2023-12-22T06:18:50;2.27;;;0.57;;
21101;SDS011;10709;49.006;12.100;2023-12-22T06:21:16;2.63;;;0.60;;
21101;SDS011;10709;49.006;12.100;2023-12-22T06:23:43;2.87;;;0.40;;
21101;SDS011;10709;49.006;12.100;2023-12-22T06:26:10;2.47;;;0.60;;
21101;SDS011;10709;49.006;12.100;2023-12-22T06:28:38;1.67;;;0.60;;
21101;SDS011;10709;49.006;12.100;2023-12-22T06:31:07;2.60;;;0.60;;
21101;SDS011;10709;49.006;12.100;2023-12-22T06:33:35;1.00;;;0.50;;
21101;SDS011;10709;49.006;12.100;2023-12-22T06:36:02;2.13;;;0.80;;
21101;SDS011;10709;49.006;12.100;2023-12-22T06:38:31;3.23;;;0.70;;
21101;SDS011;10709;49.006;12.100;2023-12-22T06:40:57;2.07;;;0.70;;
21101;SDS011;10709;49.006;12.100;2023-12-22T06:43:24;1.20;;;0.70;;
21101;SDS011;10709;49.006;12.100;2023-12-22T06:45:51;1.80;;;0.67;;
21101;SDS011;10709;49.006;12.100;2023-12-22T06:48:21;2.43;;;0.70;;
21101;SDS011;10709;49.006;12.100;2023-12-22T06:50:48;3.90;;;0.87;;
21101;SDS011;10709;49.006;12.100;2023-12-22T06:53:15;1.73;;;0.60;;
21101;SDS011;10709;49.006;12.100;2023-12-22T06:55:51;3.20;;;0.60;;
21101;SDS011;10709;49.006;12.100;2023-12-22T06:58:18;1.97;;;0.80;;
21101;SDS011;10709;49.006;12.100;2023-12-22T07:00:48;1.23;;;0.50;;
21101;SDS011;10709;49.006;12.100;2023-12-22T07:03:18;2.40;;;0.60;;
21101;SDS011;10709;49.006;12.100;2023-12-22T07:05:45;0.73;;;0.50;;
21101;SDS011;10709;49.006;12.100;2023-12-22T07:08:12;0.90;;;0.33;;
21101;SDS011;10709;49.006;12.100;2023-12-22T07:10:39;1.93;;;0.43;;
21101;SDS011;10709;49.006;12.100;2023-12-22T07:13:07;2.13;;;0.60;;
21101;SDS011;10709;49.006;12.100;2023-12-22T07:15:34;0.90;;;0.40;;
21101;SDS011;10709;49.006;12.100;2023-12-22T07:18:00;1.63;;;0.40;;
21101;SDS011;10709;49.006;12.100;2023-12-22T07:20:27;1.63;;;0.50;;
21101;SDS011;10709;49.006;12.100;2023-12-22T07:22:55;0.97;;;0.50;;
21101;SDS011;10709;49.006;12.100;2023-12-22T07:25:23;1.23;;;0.40;;
21101;SDS011;10709;49.006;12.100;2023-12-22T07:27:49;1.63;;;0.50;;
21101;SDS011;10709;49.006;12.100;2023-12-22T07:30:19;1.10;;;0.43;;
21101;SDS011;10709;49.006;12.100;2023-12-22T07:32:47;0.40;;;0.40;;
21101;SDS011;10709;49.006;12.100;2023-12-22T07:35:18;0.90;;;0.30;;
21101;SDS011;10709;49.006;12.100;2023-12-22T07:37:45;1.27;;;0.43;;
21101;SDS011;10709;49.006;12.100;2023-12-22T07:40:12;0.77;;;0.57;;
21101;SDS011;10709;49.006;12.100;2023-12-22T07:42:38;1.00;;;0.53;;
21101;SDS011;10709;49.006;12.100;2023-12-22T07:45:05;1.20;;;0.60;;
21101;SDS011;10709;49.006;12.100;2023-12-22T07:47:32;1.93;;;0.53;;
21101;SDS011;10709;49.006;12.100;2023-12-22T07:49:59;2.53;;;0.80;;
21101;SDS011;10709;49.006;12.100;2023-12-22T07:52:29;2.00;;;0.60;;
21101;SDS011;10709;49.006;12.100;2023-12-22T07:54:56;1.57;;;0.73;;
21101;SDS011;10709;49.006;12.100;2023-12-22T07:57:23;4.40;;;1.00;;
21101;SDS011;10709;49.006;12.100;2023-12-22T07:59:49;6.30;;;1.17;;
21101;SDS011;10709;49.006;12.100;2023-12-22T08:02:16;4.03;;;1.00;;
21101;SDS011;10709;49.006;12.100;2023-12-22T08:04:44;4.23;;;1.10;;
21101;SDS011;10709;49.006;12.100;2023-12-22T08:07:11;3.93;;;1.00;;
21101;SDS011;10709;49.006;12.100;2023-12-22T08:09:37;3.13;;;1.20;;
21101;SDS011;10709;49.006;12.100;2023-12-22T08:12:04;2.60;;;1.10;;
21101;SDS011;10709;49.006;12.100;2023-12-22T08:14:31;6.73;;;1.23;;
21101;SDS011;10709;49.006;12.100;2023-12-22T08:16:57;4.07;;;1.10;;
21101;SDS011;10709;49.006;12.100;2023-12-22T08:19:24;4.00;;;1.23;;
21101;SDS011;10709;49.006;12.100;2023-12-22T08:21:55;4.80;;;1.17;;
21101;SDS011;10709;49.006;12.100;2023-12-22T08:24:24;6.20;;;1.20;;
21101;SDS011;10709;49.006;12.100;2023-12-22T08:26:50;5.13;;;1.37;;
21101;SDS011;10709;49.006;12.100;2023-12-22T08:29:19;3.57;;;1.00;;
21101;SDS011;10709;49.006;12.100;2023-12-22T08:31:50;3.77;;;0.90;;
21101;SDS011;10709;49.006;12.100;2023-12-22T08:34:17;2.83;;;0.87;;
21101;SDS011;10709;49.006;12.100;2023-12-22T08:36:47;4.67;;;0.90;;
21101;SDS011;10709;49.006;12.100;2023-12-22T08:39:13;2.53;;;0.73;;
21101;SDS011;10709;49.006;12.100;2023-12-22T08:41:40;3.13;;;0.77;;
21101;SDS011;10709;49.006;12.100;2023-12-22T08:44:07;5.00;;;1.00;;
21101;SDS011;10709;49.006;12.100;2023-12-22T08:46:34;3.40;;;0.87;;
21101;SDS011;10709;49.006;12.100;2023-12-22T08:49:02;3.20;;;0.90;;
21101;SDS011;10709;49.006;12.100;2023-12-22T08:51:32;3.77;;;1.23;;
21101;SDS011;10709;49.006;12.100;2023-12-22T08:54:00;4.17;;;1.07;;
21101;SDS011;10709;49.006;12.100;2023-12-22T08:56:26;3.07;;;1.20;;
21101;SDS011;10709;49.006;12.100;2023-12-22T08:58:53;5.10;;;1.63;;
21101;SDS011;10709;49.006;12.100;2023-12-22T09:01:25;4.87;;;1.30;;
21101;SDS011;10709;49.006;12.100;2023-12-22T09:03:52;3.73;;;1.03;;
21101;SDS011;10709;49.006;12.100;2023-12-22T09:06:20;5.23;;;1.40;;
21101;SDS011;10709;49.006;12.100;2023-12-22T09:08:51;7.43;;;1.43;;
21101;SDS011;10709;49.006;12.100;2023-12-22T09:11:19;8.10;;;1.67;;
21101;SDS011;10709;49.006;12.100;2023-12-22T09:13:46;6.80;;;1.07;;
21101;SDS011;10709;49.006;12.100;2023-12-22T09:16:13;2.50;;;1.17;;
21101;SDS011;10709;49.006;12.100;2023-12-22T09:18:42;2.63;;;0.90;;
21101;SDS011;10709;49.006;12.100;2023-12-22T09:21:11;6.67;;;1.23;;
21101;SDS011;10709;49.006;12.100;2023-12-22T09:23:38;3.90;;;1.20;;
21101;SDS011;10709;49.006;12.100;2023-12-22T09:26:04;4.57;;;0.90;;
21101;SDS011;10709;49.006;12.100;2023-12-22T09:28:31;3.03;;;1.23;;
21101;SDS011;10709;49.006;12.100;2023-12-22T09:30:58;3.53;;;1.10;;
21101;SDS011;10709;49.006;12.100;2023-12-22T09:33:24;6.30;;;1.20;;
21101;SDS011;10709;49.006;12.100;2023-12-22T09:35:51;3.17;;;1.00;;
21101;SDS011;10709;49.006;12.100;2023-12-22T09:38:18;4.57;;;1.00;;
21101;SDS011;10709;49.006;12.100;2023-12-22T09:40:45;5.77;;;0.93;;
21101;SDS011;10709;49.006;12.100;2023-12-22T09:43:14;4.27;;;1.10;;
21101;SDS011;10709;49.006;12.100;2023-12-22T09:45:42;5.03;;;1.13;;
21101;SDS011;10709;49.006;12.100;2023-12-22T09:48:09;3.90;;;1.10;;
21101;SDS011;10709;49.006;12.100;2023-12-22T09:50:39;5.17;;;1.03;;
21101;SDS011;10709;49.006;12.100;2023-12-22T09:53:08;6.10;;;1.30;;
21101;SDS011;10709;49.006;12.100;2023-12-22T09:55:35;5.90;;;1.30;;
21101;SDS011;10709;49.006;12.100;2023-12-22T09:58:04;5.83;;;1.50;;
21101;SDS011;10709;49.006;12.100;2023-12-22T10:00:32;7.43;;;1.77;;
21101;SDS011;10709;49.006;12.100;2023-12-22T10:03:00;5.33;;;1.60;;
21101;SDS011;10709;49.006;12.100;2023-12-22T10:05:27;5.20;;;1.80;;
21101;SDS011;10709;49.006;12.100;2023-12-22T10:07:56;7.53;;;1.40;;
21101;SDS011;10709;49.006;12.100;2023-12-22T10:10:23;5.30;;;1.50;;
21101;SDS011;10709;49.006;12.100;2023-12-22T10:12:51;3.30;;;1.40;;
21101;SDS011;10709;49.006;12.100;2023-12-22T10:15:18;6.73;;;1.50;;
21101;SDS011;10709;49.006;12.100;2023-12-22T10:17:50;8.47;;;1.50;;
21101;SDS011;10709;49.006;12.100;2023-12-22T10:20:19;6.93;;;1.10;;
21101;SDS011;10709;49.006;12.100;2023-12-22T10:22:45;4.13;;;1.20;;
21101;SDS011;10709;49.006;12.100;2023-12-22T10:25:15;6.20;;;1.33;;
21101;SDS011;10709;49.006;12.100;2023-12-22T10:27:47;4.83;;;1.37;;
21101;SDS011;10709;49.006;12.100;2023-12-22T10:30:14;4.33;;;1.27;;
21101;SDS011;10709;49.006;12.100;2023-12-22T10:32:41;7.03;;;1.30;;
21101;SDS011;10709;49.006;12.100;2023-12-22T10:35:10;5.37;;;1.30;;
21101;SDS011;10709;49.006;12.100;2023-12-22T10:37:38;6.83;;;1.43;;
21101;SDS011;10709;49.006;12.100;2023-12-22T10:40:05;9.33;;;1.57;;
21101;SDS011;10709;49.006;12.100;2023-12-22T10:42:35;7.77;;;1.53;;
21101;SDS011;10709;49.006;12.100;2023-12-22T10:45:02;7.23;;;1.53;;
21101;SDS011;10709;49.006;12.100;2023-12-22T10:47:29;5.63;;;1.40;;
21101;SDS011;10709;49.006;12.100;2023-12-22T10:49:56;3.83;;;1.30;;
21101;SDS011;10709;49.006;12.100;2023-12-22T10:52:23;5.23;;;1.60;;
21101;SDS011;10709;49.006;12.100;2023-12-22T10:54:54;4.60;;;1.03;;
21101;SDS011;10709;49.006;12.100;2023-12-22T10:57:24;2.87;;;0.90;;
21101;SDS011;10709;49.006;12.100;2023-12-22T10:59:53;4.07;;;1.10;;
21101;SDS011;10709;49.006;12.100;2023-12-22T11:02:26;5.40;;;0.97;;
21101;SDS011;10709;49.006;12.100;2023-12-22T11:05:05;2.93;;;1.00;;
21101;SDS011;10709;49.006;12.100;2023-12-22T11:07:33;2.17;;;0.90;;
21101;SDS011;10709;49.006;12.100;2023-12-22T11:10:07;3.73;;;0.97;;
21101;SDS011;10709;49.006;12.100;2023-12-22T11:12:37;3.73;;;1.20;;
21101;SDS011;10709;49.006;12.100;2023-12-22T11:15:05;2.97;;;1.20;;
21101;SDS011;10709;49.006;12.100;2023-12-22T11:17:37;2.47;;;1.40;;
21101;SDS011;10709;49.006;12.100;2023-12-22T11:20:09;3.40;;;1.20;;
21101;SDS011;10709;49.006;12.100;2023-12-22T11:22:36;4.67;;;1.50;;
21101;SDS011;10709;49.006;12.100;2023-12-22T11:25:05;2.20;;;1.07;;
21101;SDS011;10709;49.006;12.100;2023-12-22T11:27:34;6.17;;;1.93;;
21101;SDS011;10709;49.006;12.100;2023-12-22T11:30:04;3.47;;;1.47;;
21101;SDS011;10709;49.006;12.100;2023-12-22T11:32:35;4.30;;;1.50;;
21101;SDS011;10709;49.006;12.100;2023-12-22T11:35:02;4.67;;;1.70;;
21101;SDS011;10709;49.006;12.100;2023-12-22T11:37:31;3.27;;;1.50;;
21101;SDS011;10709;49.006;12.100;2023-12-22T11:40:00;5.27;;;2.00;;
21101;SDS011;10709;49.006;12.100;2023-12-22T11:42:30;6.50;;;2.17;;
21101;SDS011;10709;49.006;12.100;2023-12-22T11:45:03;6.27;;;2.67;;
21101;SDS011;10709;49.006;12.100;2023-12-22T11:47:31;4.77;;;1.77;;
21101;SDS011;10709;49.006;12.100;2023-12-22T11:49:58;5.10;;;1.57;;
21101;SDS011;10709;49.006;12.100;2023-12-22T11:52:25;3.87;;;1.30;;
21101;SDS011;10709;49.006;12.100;2023-12-22T11:55:00;5.70;;;1.70;;
21101;SDS011;10709;49.006;12.100;2023-12-22T11:59:54;5.60;;;1.30;;
21101;SDS011;10709;49.006;12.100;2023-12-22T12:02:21;3.60;;;1.00;;
21101;SDS011;10709;49.006;12.100;2023-12-22T12:04:49;3.77;;;1.10;;
21101;SDS011;10709;49.006;12.100;2023-12-22T12:10:02;1.63;;;0.90;;
21101;SDS011;10709;49.006;12.100;2023-12-22T12:12:29;3.30;;;1.00;;
21101;SDS011;10709;49.006;12.100;2023-12-22T12:14:57;4.07;;;0.80;;
21101;SDS011;10709;49.006;12.100;2023-12-22T12:17:37;2.37;;;0.90;;
21101;SDS011;10709;49.006;12.100;2023-12-22T12:20:06;3.43;;;0.90;;
21101;SDS011;10709;49.006;12.100;2023-12-22T12:22:34;4.17;;;1.20;;
21101;SDS011;10709;49.006;12.100;2023-12-22T12:25:01;3.50;;;1.50;;
21101;SDS011;10709;49.006;12.100;2023-12-22T12:27:28;4.67;;;1.93;;
21101;SDS011;10709;49.006;12.100;2023-12-22T12:29:54;3.23;;;1.17;;
21101;SDS011;10709;49.006;12.100;2023-12-22T12:32:23;2.90;;;1.20;;
21101;SDS011;10709;49.006;12.100;2023-12-22T12:34:51;2.10;;;1.10;;
21101;SDS011;10709;49.006;12.100;2023-12-22T12:37:19;3.00;;;1.30;;
21101;SDS011;10709;49.006;12.100;2023-12-22T12:39:47;3.50;;;1.43;;
21101;SDS011;10709;49.006;12.100;2023-12-22T12:42:16;5.87;;;1.50;;
21101;SDS011;10709;49.006;12.100;2023-12-22T12:44:44;2.30;;;0.90;;
21101;SDS011;10709;49.006;12.100;2023-12-22T12:47:12;4.80;;;1.10;;
21101;SDS011;10709;49.006;12.100;2023-12-22T12:49:40;1.80;;;0.80;;
21101;SDS011;10709;49.006;12.100;2023-12-22T12:52:11;2.23;;;1.00;;
21101;SDS011;10709;49.006;12.100;2023-12-22T12:54:39;3.53;;;0.90;;
21101;SDS011;10709;49.006;12.100;2023-12-22T12:57:07;4.80;;;1.17;;
21101;SDS011;10709;49.006;12.100;2023-12-22T12:59:44;2.80;;;0.80;;
21101;SDS011;10709;49.006;12.100;2023-12-22T13:02:18;3.87;;;1.20;;
21101;SDS011;10709;49.006;12.100;2023-12-22T13:04:46;2.97;;;1.17;;
21101;SDS011;10709;49.006;12.100;2023-12-22T13:07:12;5.77;;;1.20;;
21101;SDS011;10709;49.006;12.100;2023-12-22T13:09:39;4.07;;;1.50;;
21101;SDS011;10709;49.006;12.100;2023-12-22T13:12:08;6.30;;;1.70;;
21101;SDS011;10709;49.006;12.100;2023-12-22T13:14:35;4.30;;;1.40;;
21101;SDS011;10709;49.006;12.100;2023-12-22T13:17:02;5.63;;;1.50;;
21101;SDS011;10709;49.006;12.100;2023-12-22T13:19:29;6.60;;;1.60;;
21101;SDS011;10709;49.006;12.100;2023-12-22T13:21:56;9.53;;;1.87;;
21101;SDS011;10709;49.006;12.100;2023-12-22T13:24:23;9.03;;;1.83;;
21101;SDS011;10709;49.006;12.100;2023-12-22T13:27:01;6.30;;;1.80;;
21101;SDS011;10709;49.006;12.100;2023-12-22T13:29:43;11.17;;;2.60;;
21101;SDS011;10709;49.006;12.100;2023-12-22T13:32:15;10.70;;;2.40;;
21101;SDS011;10709;49.006;12.100;2023-12-22T13:34:55;10.70;;;2.50;;
21101;SDS011;10709;49.006;12.100;2023-12-22T13:37:23;12.00;;;2.80;;
21101;SDS011;10709;49.006;12.100;2023-12-22T13:39:53;8.80;;;2.07;;
21101;SDS011;10709;49.006;12.100;2023-12-22T13:42:20;7.10;;;2.00;;
21101;SDS011;10709;49.006;12.100;2023-12-22T13:44:48;9.47;;;2.10;;
21101;SDS011;10709;49.006;12.100;2023-12-22T13:47:16;10.77;;;1.93;;
21101;SDS011;10709;49.006;12.100;2023-12-22T13:49:42;12.13;;;2.20;;
21101;SDS011;10709;49.006;12.100;2023-12-22T13:52:28;11.10;;;2.37;;
21101;SDS011;10709;49.006;12.100;2023-12-22T13:55:02;7.10;;;1.83;;
21101;SDS011;10709;49.006;12.100;2023-12-22T13:57:37;9.60;;;2.20;;
21101;SDS011;10709;49.006;12.100;2023-12-22T14:00:46;6.10;;;2.00;;
21101;SDS011;10709;49.006;12.100;2023-12-22T14:02:58;6.57;;;1.63;;
21101;SDS011;10709;49.006;12.100;2023-12-22T14:05:25;7.37;;;1.90;;
21101;SDS011;10709;49.006;12.100;2023-12-22T14:07:54;8.40;;;1.80;;
21101;SDS011;10709;49.006;12.100;2023-12-22T14:10:21;10.27;;;1.50;;
21101;SDS011;10709;49.006;12.100;2023-12-22T14:12:48;6.37;;;1.40;;
21101;SDS011;10709;49.006;12.100;2023-12-22T14:15:14;8.70;;;1.70;;
21101;SDS011;10709;49.006;12.100;2023-12-22T14:17:42;8.00;;;1.60;;
21101;SDS011;10709;49.006;12.100;2023-12-22T14:20:09;6.50;;;1.57;;
21101;SDS011;10709;49.006;12.100;2023-12-22T14:22:37;8.03;;;1.63;;
21101;SDS011;10709;49.006;12.100;2023-12-22T14:25:04;6.63;;;1.70;;
21101;SDS011;10709;49.006;12.100;2023-12-22T14:27:32;4.10;;;1.27;;
21101;SDS011;10709;49.006;12.100;2023-12-22T14:29:58;3.33;;;1.27;;
21101;SDS011;10709;49.006;12.100;2023-12-22T14:32:25;8.53;;;1.60;;
21101;SDS011;10709;49.006;12.100;2023-12-22T14:34:52;8.77;;;1.50;;
21101;SDS011;10709;49.006;12.100;2023-12-22T14:37:18;6.60;;;1.20;;
21101;SDS011;10709;49.006;12.100;2023-12-22T14:39:46;3.83;;;1.27;;
21101;SDS011;10709;49.006;12.100;2023-12-22T14:42:13;4.50;;;1.10;;
21101;SDS011;10709;49.006;12.100;2023-12-22T14:44:40;5.73;;;1.10;;
21101;SDS011;10709;49.006;12.100;2023-12-22T14:47:07;6.17;;;1.70;;